Tunka, Russia
Current Conditions -  °F | °C
As of 6:30 AM on Saturday 20 Dec 2014 (Local Time) from UIII Reporting Station
Clear Clear  
Wind Chill: -8°   Ceiling: Unl
Heat Index:   Visibility: 6mi
Dew Point: -2°   Wind: 4mph
Humidity: 85%   Direction: 90°E
Pressure: 30.42"   Gusts: NA
Location:  51.74°N, 102.55°E
Report Text: UIII 192230Z 09002MPS CAVOK M17/M19 Q1030 NOSIG RMK QFE729/097312850350
Loading
Personal Weather Stations






























Interactive Weather Map New forecast layout! Learn more

10-Day Weather Forecast

Advertisements
Track Severe Weather on mobile